sensor_id;sensor_type;location;lat;lon;timestamp;P1;durP1;ratioP1;P2;durP2;ratioP2
8462;SDS011;4268;52.506;13.462;2023-02-15T00:01:23;25.30;;;21.10;;
8462;SDS011;4268;52.506;13.462;2023-02-15T00:03:49;26.10;;;21.43;;
8462;SDS011;4268;52.506;13.462;2023-02-15T00:06:15;27.53;;;21.80;;
8462;SDS011;4268;52.506;13.462;2023-02-15T00:08:40;24.30;;;20.47;;
8462;SDS011;4268;52.506;13.462;2023-02-15T00:11:06;25.67;;;21.90;;
8462;SDS011;4268;52.506;13.462;2023-02-15T00:13:33;26.30;;;22.33;;
8462;SDS011;4268;52.506;13.462;2023-02-15T00:16:05;27.63;;;22.33;;
8462;SDS011;4268;52.506;13.462;2023-02-15T00:18:32;25.73;;;22.03;;
8462;SDS011;4268;52.506;13.462;2023-02-15T00:20:58;25.47;;;21.40;;
8462;SDS011;4268;52.506;13.462;2023-02-15T00:23:27;26.47;;;21.63;;
8462;SDS011;4268;52.506;13.462;2023-02-15T00:26:02;27.07;;;21.77;;
8462;SDS011;4268;52.506;13.462;2023-02-15T00:28:32;27.57;;;21.87;;
8462;SDS011;4268;52.506;13.462;2023-02-15T00:31:04;25.30;;;20.67;;
8462;SDS011;4268;52.506;13.462;2023-02-15T00:33:35;24.67;;;20.53;;
8462;SDS011;4268;52.506;13.462;2023-02-15T00:36:01;26.30;;;20.90;;
8462;SDS011;4268;52.506;13.462;2023-02-15T00:38:27;24.37;;;20.97;;
8462;SDS011;4268;52.506;13.462;2023-02-15T00:40:54;25.70;;;21.13;;
8462;SDS011;4268;52.506;13.462;2023-02-15T00:43:21;26.67;;;22.13;;
8462;SDS011;4268;52.506;13.462;2023-02-15T00:45:47;26.23;;;21.20;;
8462;SDS011;4268;52.506;13.462;2023-02-15T00:48:12;28.47;;;22.33;;
8462;SDS011;4268;52.506;13.462;2023-02-15T00:50:38;30.47;;;23.00;;
8462;SDS011;4268;52.506;13.462;2023-02-15T00:53:03;27.97;;;22.50;;
8462;SDS011;4268;52.506;13.462;2023-02-15T00:55:29;27.33;;;22.10;;
8462;SDS011;4268;52.506;13.462;2023-02-15T00:57:55;26.67;;;22.07;;
8462;SDS011;4268;52.506;13.462;2023-02-15T01:00:20;28.70;;;22.13;;
8462;SDS011;4268;52.506;13.462;2023-02-15T01:02:46;27.07;;;22.07;;
8462;SDS011;4268;52.506;13.462;2023-02-15T01:05:11;27.40;;;22.40;;
8462;SDS011;4268;52.506;13.462;2023-02-15T01:07:37;25.70;;;22.17;;
8462;SDS011;4268;52.506;13.462;2023-02-15T01:10:04;29.53;;;23.13;;
8462;SDS011;4268;52.506;13.462;2023-02-15T01:12:31;24.53;;;20.70;;
8462;SDS011;4268;52.506;13.462;2023-02-15T01:14:56;29.00;;;23.23;;
8462;SDS011;4268;52.506;13.462;2023-02-15T01:17:22;27.90;;;21.77;;
8462;SDS011;4268;52.506;13.462;2023-02-15T01:19:47;28.67;;;23.57;;
8462;SDS011;4268;52.506;13.462;2023-02-15T01:22:13;27.10;;;22.50;;
8462;SDS011;4268;52.506;13.462;2023-02-15T01:24:39;28.23;;;22.37;;
8462;SDS011;4268;52.506;13.462;2023-02-15T01:27:04;29.23;;;23.90;;
8462;SDS011;4268;52.506;13.462;2023-02-15T01:29:29;28.40;;;22.97;;
8462;SDS011;4268;52.506;13.462;2023-02-15T01:31:55;29.10;;;23.87;;
8462;SDS011;4268;52.506;13.462;2023-02-15T01:34:20;31.23;;;23.50;;
8462;SDS011;4268;52.506;13.462;2023-02-15T01:36:46;29.90;;;22.97;;
8462;SDS011;4268;52.506;13.462;2023-02-15T01:39:11;29.20;;;23.60;;
8462;SDS011;4268;52.506;13.462;2023-02-15T01:41:37;29.57;;;24.27;;
8462;SDS011;4268;52.506;13.462;2023-02-15T01:44:03;31.30;;;24.53;;
8462;SDS011;4268;52.506;13.462;2023-02-15T01:49:05;28.70;;;23.17;;
8462;SDS011;4268;52.506;13.462;2023-02-15T01:51:38;28.10;;;23.43;;
8462;SDS011;4268;52.506;13.462;2023-02-15T01:54:10;29.63;;;22.73;;
8462;SDS011;4268;52.506;13.462;2023-02-15T01:56:46;30.13;;;23.77;;
8462;SDS011;4268;52.506;13.462;2023-02-15T01:59:13;29.70;;;24.40;;
8462;SDS011;4268;52.506;13.462;2023-02-15T02:01:44;28.67;;;23.20;;
8462;SDS011;4268;52.506;13.462;2023-02-15T02:04:13;30.80;;;22.37;;
8462;SDS011;4268;52.506;13.462;2023-02-15T02:06:42;30.73;;;24.07;;
8462;SDS011;4268;52.506;13.462;2023-02-15T02:09:11;28.57;;;23.70;;
8462;SDS011;4268;52.506;13.462;2023-02-15T02:11:37;29.80;;;24.27;;
8462;SDS011;4268;52.506;13.462;2023-02-15T02:14:05;29.87;;;24.27;;
8462;SDS011;4268;52.506;13.462;2023-02-15T02:16:47;31.07;;;24.30;;
8462;SDS011;4268;52.506;13.462;2023-02-15T02:19:54;32.10;;;24.13;;
8462;SDS011;4268;52.506;13.462;2023-02-15T02:22:59;31.37;;;24.67;;
8462;SDS011;4268;52.506;13.462;2023-02-15T02:25:42;37.03;;;26.20;;
8462;SDS011;4268;52.506;13.462;2023-02-15T02:36:44;36.60;;;27.67;;
8462;SDS011;4268;52.506;13.462;2023-02-15T02:39:30;35.27;;;26.13;;
8462;SDS011;4268;52.506;13.462;2023-02-15T02:42:18;35.97;;;27.07;;
8462;SDS011;4268;52.506;13.462;2023-02-15T02:44:54;38.33;;;28.37;;
8462;SDS011;4268;52.506;13.462;2023-02-15T02:47:31;43.67;;;30.63;;
8462;SDS011;4268;52.506;13.462;2023-02-15T02:50:03;38.90;;;28.20;;
8462;SDS011;4268;52.506;13.462;2023-02-15T02:55:03;41.00;;;30.53;;
8462;SDS011;4268;52.506;13.462;2023-02-15T02:57:37;41.77;;;30.57;;
8462;SDS011;4268;52.506;13.462;2023-02-15T03:00:10;40.17;;;29.60;;
8462;SDS011;4268;52.506;13.462;2023-02-15T03:02:39;40.30;;;29.53;;
8462;SDS011;4268;52.506;13.462;2023-02-15T03:05:11;45.13;;;31.73;;
8462;SDS011;4268;52.506;13.462;2023-02-15T03:07:42;43.40;;;31.00;;
8462;SDS011;4268;52.506;13.462;2023-02-15T03:10:13;47.77;;;32.33;;
8462;SDS011;4268;52.506;13.462;2023-02-15T03:12:40;46.57;;;33.03;;
8462;SDS011;4268;52.506;13.462;2023-02-15T03:15:08;44.97;;;31.57;;
8462;SDS011;4268;52.506;13.462;2023-02-15T03:17:41;45.80;;;31.70;;
8462;SDS011;4268;52.506;13.462;2023-02-15T03:22:51;45.03;;;31.93;;
8462;SDS011;4268;52.506;13.462;2023-02-15T03:25:22;41.43;;;30.20;;
8462;SDS011;4268;52.506;13.462;2023-02-15T03:27:58;42.10;;;29.93;;
8462;SDS011;4268;52.506;13.462;2023-02-15T03:30:26;46.40;;;32.63;;
8462;SDS011;4268;52.506;13.462;2023-02-15T03:32:54;47.33;;;33.57;;
8462;SDS011;4268;52.506;13.462;2023-02-15T03:35:23;51.03;;;35.20;;
8462;SDS011;4268;52.506;13.462;2023-02-15T03:37:54;44.77;;;32.63;;
8462;SDS011;4268;52.506;13.462;2023-02-15T03:40:34;44.23;;;31.53;;
8462;SDS011;4268;52.506;13.462;2023-02-15T03:43:23;45.37;;;33.47;;
8462;SDS011;4268;52.506;13.462;2023-02-15T03:46:09;46.33;;;32.80;;
8462;SDS011;4268;52.506;13.462;2023-02-15T03:48:41;47.80;;;34.10;;
8462;SDS011;4268;52.506;13.462;2023-02-15T03:51:12;40.83;;;31.03;;
8462;SDS011;4268;52.506;13.462;2023-02-15T03:54:05;45.50;;;31.67;;
8462;SDS011;4268;52.506;13.462;2023-02-15T03:56:34;45.63;;;32.63;;
8462;SDS011;4268;52.506;13.462;2023-02-15T03:59:02;43.37;;;30.50;;
8462;SDS011;4268;52.506;13.462;2023-02-15T04:02:09;44.57;;;30.20;;
8462;SDS011;4268;52.506;13.462;2023-02-15T04:04:36;48.40;;;32.33;;
8462;SDS011;4268;52.506;13.462;2023-02-15T04:07:04;48.83;;;33.17;;
8462;SDS011;4268;52.506;13.462;2023-02-15T04:09:31;50.10;;;34.23;;
8462;SDS011;4268;52.506;13.462;2023-02-15T04:12:16;42.00;;;30.37;;
8462;SDS011;4268;52.506;13.462;2023-02-15T04:14:41;47.40;;;33.00;;
8462;SDS011;4268;52.506;13.462;2023-02-15T04:17:25;44.77;;;30.80;;
8462;SDS011;4268;52.506;13.462;2023-02-15T04:19:51;41.87;;;30.47;;
8462;SDS011;4268;52.506;13.462;2023-02-15T04:22:35;44.57;;;31.97;;
8462;SDS011;4268;52.506;13.462;2023-02-15T04:25:19;42.33;;;29.97;;
8462;SDS011;4268;52.506;13.462;2023-02-15T04:27:46;46.90;;;32.70;;
8462;SDS011;4268;52.506;13.462;2023-02-15T04:30:15;39.40;;;30.10;;
8462;SDS011;4268;52.506;13.462;2023-02-15T04:32:41;49.53;;;33.13;;
8462;SDS011;4268;52.506;13.462;2023-02-15T04:35:07;44.43;;;30.80;;
8462;SDS011;4268;52.506;13.462;2023-02-15T04:37:34;47.53;;;31.50;;
8462;SDS011;4268;52.506;13.462;2023-02-15T04:40:00;44.97;;;31.33;;
8462;SDS011;4268;52.506;13.462;2023-02-15T04:42:25;47.87;;;32.87;;
8462;SDS011;4268;52.506;13.462;2023-02-15T04:44:51;45.63;;;32.70;;
8462;SDS011;4268;52.506;13.462;2023-02-15T04:47:18;49.40;;;32.90;;
8462;SDS011;4268;52.506;13.462;2023-02-15T04:49:43;46.10;;;32.67;;
8462;SDS011;4268;52.506;13.462;2023-02-15T04:52:09;44.73;;;31.97;;
8462;SDS011;4268;52.506;13.462;2023-02-15T04:54:34;44.27;;;31.93;;
8462;SDS011;4268;52.506;13.462;2023-02-15T04:57:00;45.53;;;32.47;;
8462;SDS011;4268;52.506;13.462;2023-02-15T04:59:25;45.10;;;32.70;;
8462;SDS011;4268;52.506;13.462;2023-02-15T05:01:51;43.70;;;32.50;;
8462;SDS011;4268;52.506;13.462;2023-02-15T05:04:17;48.97;;;34.00;;
8462;SDS011;4268;52.506;13.462;2023-02-15T05:06:42;46.60;;;32.53;;
8462;SDS011;4268;52.506;13.462;2023-02-15T05:09:07;43.83;;;31.90;;
8462;SDS011;4268;52.506;13.462;2023-02-15T05:11:33;42.47;;;30.67;;
8462;SDS011;4268;52.506;13.462;2023-02-15T05:13:58;39.47;;;29.43;;
8462;SDS011;4268;52.506;13.462;2023-02-15T05:16:24;44.77;;;32.40;;
8462;SDS011;4268;52.506;13.462;2023-02-15T05:18:50;42.07;;;29.53;;
8462;SDS011;4268;52.506;13.462;2023-02-15T05:21:16;44.37;;;32.30;;
8462;SDS011;4268;52.506;13.462;2023-02-15T05:23:41;41.50;;;30.20;;
8462;SDS011;4268;52.506;13.462;2023-02-15T05:26:10;40.80;;;31.23;;
8462;SDS011;4268;52.506;13.462;2023-02-15T05:28:55;42.13;;;30.67;;
8462;SDS011;4268;52.506;13.462;2023-02-15T05:31:21;44.37;;;32.03;;
8462;SDS011;4268;52.506;13.462;2023-02-15T05:33:47;46.13;;;32.23;;
8462;SDS011;4268;52.506;13.462;2023-02-15T05:36:12;43.87;;;30.90;;
8462;SDS011;4268;52.506;13.462;2023-02-15T05:38:38;46.13;;;32.20;;
8462;SDS011;4268;52.506;13.462;2023-02-15T05:41:04;46.77;;;32.80;;
8462;SDS011;4268;52.506;13.462;2023-02-15T05:43:31;45.73;;;32.37;;
8462;SDS011;4268;52.506;13.462;2023-02-15T05:45:57;46.07;;;32.93;;
8462;SDS011;4268;52.506;13.462;2023-02-15T05:48:24;48.20;;;34.13;;
8462;SDS011;4268;52.506;13.462;2023-02-15T05:51:04;49.83;;;35.27;;
8462;SDS011;4268;52.506;13.462;2023-02-15T05:53:35;46.73;;;33.77;;
8462;SDS011;4268;52.506;13.462;2023-02-15T05:56:02;48.63;;;33.13;;
8462;SDS011;4268;52.506;13.462;2023-02-15T05:58:30;45.23;;;32.87;;
8462;SDS011;4268;52.506;13.462;2023-02-15T06:00:57;48.27;;;33.30;;
8462;SDS011;4268;52.506;13.462;2023-02-15T06:03:23;53.60;;;35.53;;
8462;SDS011;4268;52.506;13.462;2023-02-15T06:05:50;50.23;;;34.80;;
8462;SDS011;4268;52.506;13.462;2023-02-15T06:08:16;56.20;;;34.93;;
8462;SDS011;4268;52.506;13.462;2023-02-15T06:10:42;56.20;;;35.27;;
8462;SDS011;4268;52.506;13.462;2023-02-15T06:13:07;45.37;;;32.07;;
8462;SDS011;4268;52.506;13.462;2023-02-15T06:15:33;47.27;;;32.73;;
8462;SDS011;4268;52.506;13.462;2023-02-15T06:17:58;50.93;;;34.33;;
8462;SDS011;4268;52.506;13.462;2023-02-15T06:20:24;54.17;;;35.53;;
8462;SDS011;4268;52.506;13.462;2023-02-15T06:22:49;59.27;;;37.80;;
8462;SDS011;4268;52.506;13.462;2023-02-15T06:25:15;55.07;;;36.00;;
8462;SDS011;4268;52.506;13.462;2023-02-15T06:27:41;57.00;;;36.63;;
8462;SDS011;4268;52.506;13.462;2023-02-15T06:30:07;76.93;;;38.50;;
8462;SDS011;4268;52.506;13.462;2023-02-15T06:32:33;53.57;;;34.73;;
8462;SDS011;4268;52.506;13.462;2023-02-15T06:34:59;56.83;;;35.40;;
8462;SDS011;4268;52.506;13.462;2023-02-15T06:37:24;62.40;;;36.50;;
8462;SDS011;4268;52.506;13.462;2023-02-15T06:39:50;85.27;;;39.27;;
8462;SDS011;4268;52.506;13.462;2023-02-15T06:42:15;51.00;;;33.43;;
8462;SDS011;4268;52.506;13.462;2023-02-15T06:44:43;66.60;;;35.73;;
8462;SDS011;4268;52.506;13.462;2023-02-15T06:47:09;57.10;;;34.53;;
8462;SDS011;4268;52.506;13.462;2023-02-15T06:49:35;57.10;;;33.47;;
8462;SDS011;4268;52.506;13.462;2023-02-15T06:52:01;53.23;;;33.17;;
8462;SDS011;4268;52.506;13.462;2023-02-15T06:54:27;66.50;;;34.67;;
8462;SDS011;4268;52.506;13.462;2023-02-15T06:56:52;59.40;;;34.17;;
8462;SDS011;4268;52.506;13.462;2023-02-15T06:59:18;73.70;;;36.97;;
8462;SDS011;4268;52.506;13.462;2023-02-15T07:01:43;85.73;;;37.37;;
8462;SDS011;4268;52.506;13.462;2023-02-15T07:04:09;66.23;;;34.37;;
8462;SDS011;4268;52.506;13.462;2023-02-15T07:06:34;94.53;;;36.73;;
8462;SDS011;4268;52.506;13.462;2023-02-15T07:09:00;72.47;;;35.07;;
8462;SDS011;4268;52.506;13.462;2023-02-15T07:11:26;55.33;;;34.33;;
8462;SDS011;4268;52.506;13.462;2023-02-15T07:14:11;56.60;;;33.37;;
8462;SDS011;4268;52.506;13.462;2023-02-15T07:16:36;50.27;;;32.73;;
8462;SDS011;4268;52.506;13.462;2023-02-15T07:19:01;59.37;;;32.87;;
8462;SDS011;4268;52.506;13.462;2023-02-15T07:21:27;65.87;;;34.83;;
8462;SDS011;4268;52.506;13.462;2023-02-15T07:23:55;94.90;;;35.80;;
8462;SDS011;4268;52.506;13.462;2023-02-15T07:26:22;63.10;;;33.17;;
8462;SDS011;4268;52.506;13.462;2023-02-15T07:28:47;57.77;;;33.03;;
8462;SDS011;4268;52.506;13.462;2023-02-15T07:31:13;68.37;;;38.10;;
8462;SDS011;4268;52.506;13.462;2023-02-15T07:33:38;60.43;;;35.07;;
8462;SDS011;4268;52.506;13.462;2023-02-15T07:36:04;63.03;;;35.07;;
8462;SDS011;4268;52.506;13.462;2023-02-15T07:38:31;46.73;;;30.93;;
8462;SDS011;4268;52.506;13.462;2023-02-15T07:41:02;46.80;;;31.23;;
8462;SDS011;4268;52.506;13.462;2023-02-15T07:43:33;56.40;;;33.60;;
8462;SDS011;4268;52.506;13.462;2023-02-15T07:46:04;57.77;;;33.10;;
8462;SDS011;4268;52.506;13.462;2023-02-15T07:48:32;56.13;;;34.53;;
8462;SDS011;4268;52.506;13.462;2023-02-15T07:50:59;54.50;;;33.50;;
8462;SDS011;4268;52.506;13.462;2023-02-15T07:53:26;51.07;;;32.63;;
8462;SDS011;4268;52.506;13.462;2023-02-15T07:55:52;59.80;;;35.10;;
8462;SDS011;4268;52.506;13.462;2023-02-15T07:58:18;58.67;;;34.83;;
8462;SDS011;4268;52.506;13.462;2023-02-15T08:00:44;58.43;;;35.53;;
8462;SDS011;4268;52.506;13.462;2023-02-15T08:03:23;70.33;;;37.13;;
8462;SDS011;4268;52.506;13.462;2023-02-15T08:05:51;64.30;;;35.33;;
8462;SDS011;4268;52.506;13.462;2023-02-15T08:08:21;55.33;;;33.97;;
8462;SDS011;4268;52.506;13.462;2023-02-15T08:11:03;56.37;;;33.37;;
8462;SDS011;4268;52.506;13.462;2023-02-15T08:13:50;81.47;;;36.60;;
8462;SDS011;4268;52.506;13.462;2023-02-15T08:16:21;65.37;;;36.07;;
8462;SDS011;4268;52.506;13.462;2023-02-15T08:18:48;59.97;;;34.77;;
8462;SDS011;4268;52.506;13.462;2023-02-15T08:21:14;54.27;;;33.10;;
8462;SDS011;4268;52.506;13.462;2023-02-15T08:23:39;59.80;;;33.87;;
8462;SDS011;4268;52.506;13.462;2023-02-15T08:26:05;50.37;;;34.10;;
8462;SDS011;4268;52.506;13.462;2023-02-15T08:28:30;54.87;;;33.83;;
8462;SDS011;4268;52.506;13.462;2023-02-15T08:31:03;57.80;;;35.60;;
8462;SDS011;4268;52.506;13.462;2023-02-15T08:33:30;64.27;;;34.60;;
8462;SDS011;4268;52.506;13.462;2023-02-15T08:35:55;59.00;;;34.50;;
8462;SDS011;4268;52.506;13.462;2023-02-15T08:38:21;51.87;;;33.53;;
8462;SDS011;4268;52.506;13.462;2023-02-15T08:40:46;58.10;;;35.80;;
8462;SDS011;4268;52.506;13.462;2023-02-15T08:43:12;47.53;;;32.33;;
8462;SDS011;4268;52.506;13.462;2023-02-15T08:45:37;57.50;;;35.33;;
8462;SDS011;4268;52.506;13.462;2023-02-15T08:48:02;55.90;;;35.73;;
8462;SDS011;4268;52.506;13.462;2023-02-15T08:50:28;53.73;;;35.27;;
8462;SDS011;4268;52.506;13.462;2023-02-15T08:52:53;59.23;;;37.03;;
8462;SDS011;4268;52.506;13.462;2023-02-15T08:55:20;67.97;;;38.30;;
8462;SDS011;4268;52.506;13.462;2023-02-15T08:57:46;74.07;;;36.47;;
8462;SDS011;4268;52.506;13.462;2023-02-15T09:00:11;52.73;;;35.87;;
8462;SDS011;4268;52.506;13.462;2023-02-15T09:02:37;52.90;;;34.77;;
8462;SDS011;4268;52.506;13.462;2023-02-15T09:05:03;48.03;;;33.47;;
8462;SDS011;4268;52.506;13.462;2023-02-15T09:07:29;43.37;;;32.00;;
8462;SDS011;4268;52.506;13.462;2023-02-15T09:09:55;46.30;;;35.10;;
8462;SDS011;4268;52.506;13.462;2023-02-15T09:12:20;47.33;;;33.73;;
8462;SDS011;4268;52.506;13.462;2023-02-15T09:14:45;42.70;;;34.17;;
8462;SDS011;4268;52.506;13.462;2023-02-15T09:17:11;44.77;;;33.47;;
8462;SDS011;4268;52.506;13.462;2023-02-15T09:19:36;47.13;;;33.17;;
8462;SDS011;4268;52.506;13.462;2023-02-15T09:22:02;48.13;;;32.70;;
8462;SDS011;4268;52.506;13.462;2023-02-15T09:24:27;46.30;;;32.00;;
8462;SDS011;4268;52.506;13.462;2023-02-15T09:26:57;42.50;;;31.10;;
8462;SDS011;4268;52.506;13.462;2023-02-15T09:29:22;44.37;;;31.20;;
8462;SDS011;4268;52.506;13.462;2023-02-15T09:31:49;43.60;;;31.40;;
8462;SDS011;4268;52.506;13.462;2023-02-15T09:34:16;44.53;;;30.37;;
8462;SDS011;4268;52.506;13.462;2023-02-15T09:36:44;40.77;;;28.87;;
8462;SDS011;4268;52.506;13.462;2023-02-15T09:39:12;42.23;;;30.33;;
8462;SDS011;4268;52.506;13.462;2023-02-15T09:41:54;40.50;;;29.93;;
8462;SDS011;4268;52.506;13.462;2023-02-15T09:56:51;34.63;;;25.93;;
8462;SDS011;4268;52.506;13.462;2023-02-15T09:59:29;38.00;;;27.50;;
8462;SDS011;4268;52.506;13.462;2023-02-15T10:02:23;37.03;;;26.60;;
8462;SDS011;4268;52.506;13.462;2023-02-15T10:08:00;35.13;;;26.40;;
8462;SDS011;4268;52.506;13.462;2023-02-15T10:14:03;37.97;;;26.77;;
8462;SDS011;4268;52.506;13.462;2023-02-15T10:16:48;31.20;;;24.70;;
8462;SDS011;4268;52.506;13.462;2023-02-15T10:19:25;31.13;;;24.80;;
8462;SDS011;4268;52.506;13.462;2023-02-15T10:22:50;31.37;;;24.90;;
8462;SDS011;4268;52.506;13.462;2023-02-15T10:27:54;31.27;;;23.50;;
8462;SDS011;4268;52.506;13.462;2023-02-15T10:33:07;34.50;;;24.27;;
8462;SDS011;4268;52.506;13.462;2023-02-15T10:36:02;32.93;;;25.07;;
8462;SDS011;4268;52.506;13.462;2023-02-15T10:38:58;36.63;;;30.37;;
8462;SDS011;4268;52.506;13.462;2023-02-15T10:41:43;34.53;;;24.83;;
8462;SDS011;4268;52.506;13.462;2023-02-15T10:44:25;36.50;;;26.17;;
8462;SDS011;4268;52.506;13.462;2023-02-15T10:47:06;34.03;;;24.60;;
8462;SDS011;4268;52.506;13.462;2023-02-15T10:50:01;33.13;;;26.93;;
8462;SDS011;4268;52.506;13.462;2023-02-15T10:55:47;35.70;;;23.70;;
8462;SDS011;4268;52.506;13.462;2023-02-15T11:09:25;30.77;;;23.33;;
8462;SDS011;4268;52.506;13.462;2023-02-15T11:12:01;33.13;;;24.70;;
8462;SDS011;4268;52.506;13.462;2023-02-15T11:16:54;29.53;;;22.93;;
8462;SDS011;4268;52.506;13.462;2023-02-15T11:19:31;28.83;;;22.03;;
8462;SDS011;4268;52.506;13.462;2023-02-15T11:22:04;29.63;;;23.33;;
8462;SDS011;4268;52.506;13.462;2023-02-15T11:24:32;34.27;;;24.53;;
8462;SDS011;4268;52.506;13.462;2023-02-15T11:29:57;26.70;;;21.43;;
8462;SDS011;4268;52.506;13.462;2023-02-15T11:32:30;27.87;;;22.10;;
8462;SDS011;4268;52.506;13.462;2023-02-15T11:35:01;29.13;;;22.30;;
8462;SDS011;4268;52.506;13.462;2023-02-15T11:37:39;28.03;;;22.27;;
8462;SDS011;4268;52.506;13.462;2023-02-15T11:40:31;31.53;;;23.37;;
8462;SDS011;4268;52.506;13.462;2023-02-15T11:43:04;25.97;;;21.27;;
8462;SDS011;4268;52.506;13.462;2023-02-15T11:45:36;27.40;;;22.00;;
8462;SDS011;4268;52.506;13.462;2023-02-15T11:48:09;23.90;;;19.67;;
8462;SDS011;4268;52.506;13.462;2023-02-15T11:50:37;25.07;;;21.77;;
8462;SDS011;4268;52.506;13.462;2023-02-15T11:53:10;26.23;;;20.07;;
8462;SDS011;4268;52.506;13.462;2023-02-15T11:55:41;23.57;;;19.70;;
8462;SDS011;4268;52.506;13.462;2023-02-15T11:58:22;22.80;;;19.30;;
8462;SDS011;4268;52.506;13.462;2023-02-15T12:01:09;25.10;;;18.83;;
8462;SDS011;4268;52.506;13.462;2023-02-15T12:03:46;19.17;;;16.93;;
8462;SDS011;4268;52.506;13.462;2023-02-15T12:06:16;20.20;;;17.93;;
8462;SDS011;4268;52.506;13.462;2023-02-15T12:14:58;20.83;;;16.70;;
8462;SDS011;4268;52.506;13.462;2023-02-15T12:17:26;22.83;;;18.00;;
8462;SDS011;4268;52.506;13.462;2023-02-15T12:19:57;21.20;;;17.70;;
8462;SDS011;4268;52.506;13.462;2023-02-15T12:22:34;19.63;;;17.53;;
8462;SDS011;4268;52.506;13.462;2023-02-15T12:25:19;21.43;;;18.03;;
8462;SDS011;4268;52.506;13.462;2023-02-15T12:28:00;21.27;;;18.70;;
8462;SDS011;4268;52.506;13.462;2023-02-15T12:30:30;22.57;;;17.70;;
8462;SDS011;4268;52.506;13.462;2023-02-15T12:33:13;21.33;;;18.10;;
8462;SDS011;4268;52.506;13.462;2023-02-15T12:38:29;21.73;;;17.83;;
8462;SDS011;4268;52.506;13.462;2023-02-15T12:40:59;21.97;;;18.23;;
8462;SDS011;4268;52.506;13.462;2023-02-15T12:43:29;22.53;;;18.40;;
8462;SDS011;4268;52.506;13.462;2023-02-15T12:46:12;19.57;;;16.60;;
8462;SDS011;4268;52.506;13.462;2023-02-15T12:48:39;21.23;;;18.37;;
8462;SDS011;4268;52.506;13.462;2023-02-15T12:51:08;21.50;;;18.27;;
8462;SDS011;4268;52.506;13.462;2023-02-15T12:53:37;19.60;;;17.50;;
8462;SDS011;4268;52.506;13.462;2023-02-15T12:56:04;21.93;;;18.40;;
8462;SDS011;4268;52.506;13.462;2023-02-15T12:58:32;21.27;;;17.33;;
8462;SDS011;4268;52.506;13.462;2023-02-15T13:03:33;21.97;;;18.60;;
8462;SDS011;4268;52.506;13.462;2023-02-15T13:06:00;20.00;;;17.77;;
8462;SDS011;4268;52.506;13.462;2023-02-15T13:08:28;20.97;;;17.50;;
8462;SDS011;4268;52.506;13.462;2023-02-15T13:10:56;18.73;;;16.73;;
8462;SDS011;4268;52.506;13.462;2023-02-15T13:13:25;22.37;;;17.50;;
8462;SDS011;4268;52.506;13.462;2023-02-15T13:15:55;20.10;;;17.03;;
8462;SDS011;4268;52.506;13.462;2023-02-15T13:18:36;20.43;;;16.70;;
8462;SDS011;4268;52.506;13.462;2023-02-15T13:21:09;19.73;;;17.53;;
8462;SDS011;4268;52.506;13.462;2023-02-15T13:24:00;18.73;;;16.13;;
8462;SDS011;4268;52.506;13.462;2023-02-15T13:26:31;17.93;;;16.03;;
8462;SDS011;4268;52.506;13.462;2023-02-15T13:29:00;21.80;;;17.77;;
8462;SDS011;4268;52.506;13.462;2023-02-15T13:31:33;21.13;;;17.53;;
8462;SDS011;4268;52.506;13.462;2023-02-15T13:34:10;18.23;;;16.00;;
8462;SDS011;4268;52.506;13.462;2023-02-15T13:36:49;21.07;;;17.23;;
8462;SDS011;4268;52.506;13.462;2023-02-15T13:50:43;19.03;;;16.43;;
8462;SDS011;4268;52.506;13.462;2023-02-15T14:00:34;19.20;;;16.30;;
8462;SDS011;4268;52.506;13.462;2023-02-15T14:02:32;19.17;;;16.20;;
8462;SDS011;4268;52.506;13.462;2023-02-15T14:11:09;17.80;;;15.97;;
8462;SDS011;4268;52.506;13.462;2023-02-15T14:16:44;16.50;;;14.80;;
8462;SDS011;4268;52.506;13.462;2023-02-15T14:25:40;17.80;;;15.90;;
8462;SDS011;4268;52.506;13.462;2023-02-15T14:27:52;18.00;;;16.10;;
8462;SDS011;4268;52.506;13.462;2023-02-15T14:30:20;17.60;;;15.70;;
8462;SDS011;4268;52.506;13.462;2023-02-15T14:33:00;18.13;;;15.90;;
8462;SDS011;4268;52.506;13.462;2023-02-15T14:35:27;18.40;;;16.00;;
8462;SDS011;4268;52.506;13.462;2023-02-15T14:37:58;17.33;;;15.53;;
8462;SDS011;4268;52.506;13.462;2023-02-15T14:46:25;17.80;;;15.97;;
8462;SDS011;4268;52.506;13.462;2023-02-15T14:49:11;16.90;;;15.17;;
8462;SDS011;4268;52.506;13.462;2023-02-15T14:54:09;18.37;;;16.00;;
8462;SDS011;4268;52.506;13.462;2023-02-15T14:56:35;18.17;;;15.50;;
8462;SDS011;4268;52.506;13.462;2023-02-15T15:01:52;17.47;;;15.67;;
8462;SDS011;4268;52.506;13.462;2023-02-15T15:07:22;16.17;;;14.47;;
8462;SDS011;4268;52.506;13.462;2023-02-15T15:09:48;17.13;;;14.57;;
8462;SDS011;4268;52.506;13.462;2023-02-15T15:12:55;18.33;;;15.53;;
8462;SDS011;4268;52.506;13.462;2023-02-15T15:22:50;17.10;;;14.80;;
8462;SDS011;4268;52.506;13.462;2023-02-15T15:25:43;17.13;;;15.00;;
8462;SDS011;4268;52.506;13.462;2023-02-15T15:28:52;17.17;;;15.37;;
8462;SDS011;4268;52.506;13.462;2023-02-15T15:31:05;17.50;;;15.00;;
8462;SDS011;4268;52.506;13.462;2023-02-15T15:39:56;18.70;;;15.47;;
8462;SDS011;4268;52.506;13.462;2023-02-15T15:45:32;15.83;;;14.23;;
8462;SDS011;4268;52.506;13.462;2023-02-15T15:48:50;17.10;;;14.23;;
8462;SDS011;4268;52.506;13.462;2023-02-15T15:51:06;15.47;;;13.87;;
8462;SDS011;4268;52.506;13.462;2023-02-15T15:53:45;16.77;;;14.47;;
8462;SDS011;4268;52.506;13.462;2023-02-15T15:56:16;15.10;;;13.60;;
8462;SDS011;4268;52.506;13.462;2023-02-15T15:59:00;15.37;;;13.67;;
8462;SDS011;4268;52.506;13.462;2023-02-15T16:01:29;15.83;;;14.10;;
8462;SDS011;4268;52.506;13.462;2023-02-15T16:03:59;16.90;;;15.07;;
8462;SDS011;4268;52.506;13.462;2023-02-15T16:06:32;17.87;;;15.43;;
8462;SDS011;4268;52.506;13.462;2023-02-15T16:09:16;17.83;;;14.70;;
8462;SDS011;4268;52.506;13.462;2023-02-15T16:11:50;16.30;;;14.60;;
8462;SDS011;4268;52.506;13.462;2023-02-15T16:16:56;18.43;;;14.73;;
8462;SDS011;4268;52.506;13.462;2023-02-15T16:19:26;16.27;;;14.57;;
8462;SDS011;4268;52.506;13.462;2023-02-15T16:21:54;18.37;;;14.87;;
8462;SDS011;4268;52.506;13.462;2023-02-15T16:27:29;17.73;;;14.90;;
8462;SDS011;4268;52.506;13.462;2023-02-15T16:30:19;16.57;;;14.30;;
8462;SDS011;4268;52.506;13.462;2023-02-15T16:32:44;21.07;;;16.00;;
8462;SDS011;4268;52.506;13.462;2023-02-15T16:35:13;18.70;;;15.03;;
8462;SDS011;4268;52.506;13.462;2023-02-15T16:37:41;17.07;;;14.87;;
8462;SDS011;4268;52.506;13.462;2023-02-15T16:40:14;22.50;;;15.30;;
8462;SDS011;4268;52.506;13.462;2023-02-15T16:42:50;18.43;;;14.50;;
8462;SDS011;4268;52.506;13.462;2023-02-15T16:45:19;15.70;;;14.10;;
8462;SDS011;4268;52.506;13.462;2023-02-15T16:47:48;16.77;;;14.97;;
8462;SDS011;4268;52.506;13.462;2023-02-15T16:50:17;15.97;;;14.17;;
8462;SDS011;4268;52.506;13.462;2023-02-15T16:52:46;16.23;;;14.53;;
8462;SDS011;4268;52.506;13.462;2023-02-15T16:55:19;16.67;;;14.73;;
8462;SDS011;4268;52.506;13.462;2023-02-15T16:57:47;16.50;;;14.80;;
8462;SDS011;4268;52.506;13.462;2023-02-15T17:00:20;17.17;;;15.20;;
8462;SDS011;4268;52.506;13.462;2023-02-15T17:03:31;16.23;;;14.53;;
8462;SDS011;4268;52.506;13.462;2023-02-15T17:05:42;16.47;;;14.40;;
8462;SDS011;4268;52.506;13.462;2023-02-15T17:08:27;19.53;;;15.77;;
8462;SDS011;4268;52.506;13.462;2023-02-15T17:13:23;15.93;;;14.23;;
8462;SDS011;4268;52.506;13.462;2023-02-15T17:18:25;16.90;;;15.10;;
8462;SDS011;4268;52.506;13.462;2023-02-15T17:20:56;15.70;;;14.00;;
8462;SDS011;4268;52.506;13.462;2023-02-15T17:25:55;16.70;;;14.80;;